createdAt,value
2019-03-30T00:00:21.717Z,45.99
2019-03-30T00:02:51.114Z,45.08
2019-03-30T00:05:20.307Z,45.43
2019-03-30T00:07:49.721Z,46.23
2019-03-30T00:10:18.938Z,46.79
2019-03-30T00:12:49.154Z,47.88
2019-03-30T00:15:18.368Z,45.99
2019-03-30T00:17:47.553Z,47.23
2019-03-30T00:20:16.793Z,46.29
2019-03-30T00:22:45.986Z,47.12
2019-03-30T00:25:16.188Z,47.05
2019-03-30T00:27:45.340Z,47.17
2019-03-30T00:30:18.913Z,46.77
2019-03-30T00:32:47.227Z,45.92
2019-03-30T00:35:16.809Z,47.44
2019-03-30T00:37:46.027Z,45.83
2019-03-30T00:40:15.341Z,46.44
2019-03-30T00:42:44.482Z,46.21
2019-03-30T00:45:13.739Z,46.83
2019-03-30T00:47:44.094Z,46.20
2019-03-30T00:50:13.588Z,46.42
2019-03-30T00:52:42.753Z,46.34
2019-03-30T00:55:12.029Z,47.17
2019-03-30T00:57:41.227Z,46.25
2019-03-30T01:00:10.488Z,47.64
2019-03-30T01:02:40.030Z,46.46
2019-03-30T01:05:09.394Z,46.26
2019-03-30T01:07:39.571Z,47.01
2019-03-30T01:10:09.082Z,47.40
2019-03-30T01:12:38.951Z,47.34
2019-03-30T01:15:08.899Z,48.05
2019-03-30T01:17:38.090Z,46.48
2019-03-30T01:20:07.515Z,46.78
2019-03-30T01:22:36.997Z,46.63
2019-03-30T01:25:07.352Z,47.02
2019-03-30T01:27:36.675Z,46.80
2019-03-30T01:30:06.364Z,46.82
2019-03-30T01:32:35.731Z,46.31
2019-03-30T01:35:05.246Z,47.62
2019-03-30T01:37:35.154Z,48.07
2019-03-30T01:40:04.907Z,46.46
2019-03-30T01:42:34.123Z,46.87
2019-03-30T01:45:03.604Z,46.26
2019-03-30T01:47:33.007Z,46.31
2019-03-30T01:50:16.175Z,45.97
2019-03-30T01:52:33.524Z,46.07
2019-03-30T01:55:02.752Z,46.59
2019-03-30T01:57:31.963Z,47.37
2019-03-30T02:00:01.412Z,46.47
2019-03-30T02:02:30.604Z,47.33
2019-03-30T02:05:01.132Z,46.34
2019-03-30T02:07:30.334Z,47.81
2019-03-30T02:09:59.590Z,47.12
2019-03-30T02:12:30.037Z,46.58
2019-03-30T02:14:59.226Z,46.44
2019-03-30T02:17:29.634Z,46.08
2019-03-30T02:19:59.102Z,46.60
2019-03-30T02:22:28.367Z,46.85
2019-03-30T02:24:57.910Z,46.14
2019-03-30T02:27:27.067Z,45.69
2019-03-30T02:29:56.301Z,47.08
2019-03-30T02:32:25.744Z,47.53
2019-03-30T02:34:55.203Z,46.97
2019-03-30T02:37:24.414Z,46.96
2019-03-30T02:39:54.681Z,46.29
2019-03-30T02:42:23.859Z,46.47
2019-03-30T02:44:53.029Z,47.17
2019-03-30T02:47:22.241Z,46.71
2019-03-30T02:49:51.438Z,45.54
2019-03-30T02:52:21.667Z,47.28
2019-03-30T02:54:50.844Z,47.53
2019-03-30T02:57:20.027Z,46.91
2019-03-30T02:59:50.401Z,47.61
2019-03-30T03:02:20.064Z,47.91
2019-03-30T03:04:49.481Z,47.66
2019-03-30T03:07:18.900Z,46.02
2019-03-30T03:09:48.077Z,47.78
2019-03-30T03:12:18.058Z,48.04
2019-03-30T03:14:47.704Z,47.25
2019-03-30T03:17:16.864Z,47.20
2019-03-30T03:19:46.260Z,47.98
2019-03-30T03:22:15.720Z,46.57
2019-03-30T03:24:44.905Z,46.94
2019-03-30T03:27:14.150Z,47.58
2019-03-30T03:29:44.332Z,46.58
2019-03-30T03:32:13.624Z,46.52
2019-03-30T03:34:43.587Z,47.00
2019-03-30T03:37:13.428Z,46.33
2019-03-30T03:39:42.841Z,46.25
2019-03-30T03:42:12.346Z,46.65
2019-03-30T03:44:42.578Z,48.27
2019-03-30T03:47:12.071Z,46.88
2019-03-30T03:49:41.480Z,47.37
2019-03-30T03:52:10.753Z,46.94
2019-03-30T03:54:40.150Z,46.86
2019-03-30T03:57:11.057Z,46.44
2019-03-30T03:59:41.083Z,46.43
2019-03-30T04:02:11.685Z,47.28
2019-03-30T04:04:42.092Z,46.90
2019-03-30T04:07:11.875Z,46.75
2019-03-30T04:09:43.194Z,47.39
2019-03-30T04:12:14.287Z,46.50
2019-03-30T04:14:49.320Z,46.48
2019-03-30T04:17:18.730Z,46.60
2019-03-30T04:19:47.941Z,46.46
2019-03-30T04:22:17.157Z,47.72
2019-03-30T04:24:46.417Z,46.56
2019-03-30T04:27:15.593Z,45.66
2019-03-30T04:29:45.032Z,46.11
2019-03-30T04:32:14.298Z,45.70
2019-03-30T04:34:43.452Z,46.01
2019-03-30T04:37:12.895Z,46.65
2019-03-30T04:39:42.087Z,46.43
2019-03-30T04:42:11.569Z,46.69
2019-03-30T04:44:40.988Z,46.29
2019-03-30T04:47:10.160Z,46.10
2019-03-30T04:49:39.545Z,46.23
2019-03-30T04:52:09.927Z,45.91
2019-03-30T04:54:39.088Z,46.25
2019-03-30T04:57:09.041Z,45.90
2019-03-30T04:59:38.440Z,45.95
2019-03-30T05:02:07.623Z,46.77
2019-03-30T05:04:37.054Z,45.80
2019-03-30T05:07:06.502Z,45.99
2019-03-30T05:09:35.980Z,46.13
2019-03-30T05:12:05.227Z,46.26
2019-03-30T05:14:34.528Z,46.38
2019-03-30T05:17:06.412Z,46.27
2019-03-30T05:19:35.665Z,45.87
2019-03-30T05:22:11.936Z,45.93
2019-03-30T05:24:35.919Z,46.22
2019-03-30T05:27:06.115Z,45.89
2019-03-30T05:29:35.379Z,45.86
2019-03-30T05:32:05.784Z,45.44
2019-03-30T05:34:35.000Z,46.09
2019-03-30T05:37:04.390Z,46.10
2019-03-30T05:39:33.569Z,45.83
2019-03-30T05:42:03.047Z,45.72
2019-03-30T05:44:32.466Z,44.84
2019-03-30T05:47:03.081Z,45.63
2019-03-30T05:49:32.282Z,45.36
2019-03-30T05:52:03.680Z,45.82
2019-03-30T05:54:32.945Z,45.12
2019-03-30T05:57:02.895Z,45.39
2019-03-30T05:59:32.101Z,44.91
2019-03-30T06:02:01.437Z,44.91
2019-03-30T06:04:30.630Z,45.21
2019-03-30T06:07:00.166Z,45.54
2019-03-30T06:09:29.447Z,44.72
2019-03-30T06:11:58.740Z,44.52
2019-03-30T06:14:28.990Z,44.34
2019-03-30T06:16:58.205Z,44.66
2019-03-30T06:19:27.796Z,44.24
2019-03-30T06:21:56.960Z,44.60
2019-03-30T06:24:27.204Z,44.37
2019-03-30T06:27:00.610Z,44.74
2019-03-30T06:29:30.817Z,44.58
2019-03-30T06:32:01.348Z,45.00
2019-03-30T06:34:32.698Z,44.99
2019-03-30T06:37:02.654Z,44.71
2019-03-30T06:39:31.848Z,38.73
2019-03-30T06:42:01.074Z,37.35
2019-03-30T06:44:32.500Z,31.27
2019-03-30T06:47:01.808Z,29.70
2019-03-30T06:49:33.018Z,28.23
2019-03-30T06:52:02.332Z,25.27
2019-03-30T06:54:31.618Z,24.96
2019-03-30T06:57:02.013Z,25.73
2019-03-30T06:59:32.311Z,24.37
2019-03-30T07:02:01.873Z,22.55
2019-03-30T07:04:31.503Z,21.92
2019-03-30T07:07:01.324Z,21.27
2019-03-30T07:09:32.082Z,22.29
2019-03-30T07:12:01.577Z,21.08
2019-03-30T07:14:33.197Z,20.22
2019-03-30T07:17:04.046Z,18.36
2019-03-30T07:19:33.337Z,18.00
2019-03-30T07:22:02.534Z,17.34
2019-03-30T07:24:31.753Z,16.82
2019-03-30T07:27:01.345Z,16.91
2019-03-30T07:29:30.819Z,18.01
2019-03-30T07:32:00.359Z,17.64
2019-03-30T07:34:30.741Z,16.40
2019-03-30T07:37:01.224Z,18.35
2019-03-30T07:39:30.518Z,19.50
2019-03-30T07:41:59.868Z,20.61
2019-03-30T07:44:29.726Z,21.02
2019-03-30T07:47:00.123Z,20.55
2019-03-30T07:49:29.672Z,21.22
2019-03-30T07:51:59.039Z,21.24
2019-03-30T07:54:28.371Z,20.91
2019-03-30T07:57:16.603Z,20.66
2019-03-30T07:59:39.365Z,19.15
2019-03-30T08:02:09.029Z,19.02
2019-03-30T08:04:38.389Z,18.21
2019-03-30T08:07:08.650Z,18.73
2019-03-30T08:09:38.012Z,18.67
2019-03-30T08:12:07.282Z,18.77
2019-03-30T08:14:36.622Z,18.38
2019-03-30T08:17:05.841Z,18.36
2019-03-30T08:19:35.647Z,17.00
2019-03-30T08:22:05.245Z,16.87
2019-03-30T08:24:35.642Z,17.92
2019-03-30T08:27:08.637Z,18.29
2019-03-30T08:29:39.224Z,18.71
2019-03-30T08:32:09.261Z,17.42
2019-03-30T08:34:38.518Z,17.14
2019-03-30T08:37:11.755Z,17.66
2019-03-30T08:39:41.060Z,17.76
2019-03-30T08:42:12.303Z,17.25
2019-03-30T08:44:41.550Z,17.59
2019-03-30T08:47:11.580Z,16.89
2019-03-30T08:49:40.844Z,16.51
2019-03-30T08:52:11.162Z,16.58
2019-03-30T08:54:40.914Z,15.61
2019-03-30T08:57:11.028Z,16.15
2019-03-30T08:59:40.528Z,16.67
2019-03-30T09:02:11.156Z,17.44
2019-03-30T09:04:40.684Z,17.02
2019-03-30T09:07:10.011Z,17.69
2019-03-30T09:09:39.704Z,17.39
2019-03-30T09:12:09.279Z,17.13
2019-03-30T09:14:40.483Z,16.65
2019-03-30T09:17:09.736Z,17.45
2019-03-30T09:19:39.365Z,18.28
2019-03-30T09:22:09.395Z,18.90
2019-03-30T09:24:41.933Z,17.99
2019-03-30T09:27:13.081Z,18.51
2019-03-30T09:29:42.795Z,18.61
2019-03-30T09:32:14.847Z,18.58
2019-03-30T09:34:44.318Z,18.93
2019-03-30T09:37:15.043Z,18.07
2019-03-30T09:39:44.913Z,16.54
2019-03-30T09:42:17.726Z,16.30
2019-03-30T09:44:47.524Z,15.84
2019-03-30T09:47:17.463Z,17.50
2019-03-30T09:49:47.454Z,16.84
2019-03-30T09:52:19.461Z,17.26
2019-03-30T09:54:53.168Z,17.40
2019-03-30T09:57:25.172Z,17.06
2019-03-30T09:59:55.503Z,17.45
2019-03-30T10:02:30.777Z,17.45
2019-03-30T10:05:03.592Z,16.54
2019-03-30T10:07:33.681Z,16.45
2019-03-30T10:10:03.702Z,16.40
2019-03-30T10:12:33.497Z,17.01
2019-03-30T10:15:05.287Z,17.42
2019-03-30T10:17:35.581Z,17.82
2019-03-30T10:20:05.462Z,17.80
2019-03-30T10:22:34.646Z,17.70
2019-03-30T10:25:04.121Z,17.76
2019-03-30T10:27:34.018Z,17.49
2019-03-30T10:30:06.869Z,17.71
2019-03-30T10:32:36.259Z,17.21
2019-03-30T10:35:06.044Z,18.10
2019-03-30T10:37:35.455Z,17.99
2019-03-30T10:40:08.210Z,18.50
2019-03-30T10:42:37.487Z,19.48
2019-03-30T10:45:07.484Z,19.03
2019-03-30T10:47:36.956Z,19.52
2019-03-30T10:50:07.003Z,19.25
2019-03-30T10:52:36.210Z,18.80
2019-03-30T10:55:05.759Z,18.22
2019-03-30T10:57:35.257Z,17.32
2019-03-30T11:00:04.662Z,16.97
2019-03-30T11:02:35.992Z,17.96
2019-03-30T11:05:05.346Z,17.62
2019-03-30T11:07:34.770Z,19.49
2019-03-30T11:10:04.659Z,19.54
2019-03-30T11:12:34.115Z,17.84
2019-03-30T11:15:03.396Z,17.73
2019-03-30T11:17:32.922Z,17.29
2019-03-30T11:20:02.122Z,17.33
2019-03-30T11:22:31.368Z,17.94
2019-03-30T11:25:07.247Z,18.12
2019-03-30T11:27:32.216Z,16.61
2019-03-30T11:30:01.400Z,17.17
2019-03-30T11:32:30.582Z,16.48
2019-03-30T11:35:00.091Z,16.01
2019-03-30T11:37:29.644Z,15.69
2019-03-30T11:39:59.096Z,14.88
2019-03-30T11:42:28.379Z,16.16
2019-03-30T11:44:57.890Z,16.56
2019-03-30T11:47:27.178Z,16.14
2019-03-30T11:49:56.747Z,16.65
2019-03-30T11:52:25.940Z,16.69
2019-03-30T11:54:55.111Z,16.18
2019-03-30T11:57:24.962Z,17.19
2019-03-30T11:59:54.937Z,16.92
2019-03-30T12:02:28.286Z,16.96
2019-03-30T12:04:55.696Z,17.95
2019-03-30T12:07:25.020Z,17.98
2019-03-30T12:09:54.980Z,18.32
2019-03-30T12:12:24.344Z,17.84
2019-03-30T12:14:53.546Z,18.10
2019-03-30T12:17:23.104Z,17.44
2019-03-30T12:19:52.396Z,16.65
2019-03-30T12:22:26.882Z,18.44
2019-03-30T12:24:56.059Z,19.27
2019-03-30T12:27:25.519Z,20.35
2019-03-30T12:29:54.760Z,22.06
2019-03-30T12:32:24.042Z,21.69
2019-03-30T12:34:53.276Z,21.83
2019-03-30T12:37:22.964Z,22.06
2019-03-30T12:39:52.168Z,21.13
2019-03-30T12:42:21.377Z,20.77
2019-03-30T12:44:51.122Z,22.32
2019-03-30T12:47:21.566Z,22.28
2019-03-30T12:49:50.738Z,21.89
2019-03-30T12:52:19.916Z,21.39
2019-03-30T12:54:49.362Z,22.63
2019-03-30T12:57:18.564Z,24.27
2019-03-30T12:59:48.981Z,23.06
2019-03-30T13:02:18.169Z,21.77
2019-03-30T13:04:47.390Z,22.52
2019-03-30T13:07:16.536Z,21.95
2019-03-30T13:09:46.055Z,21.46
2019-03-30T13:12:15.282Z,22.12
2019-03-30T13:14:45.143Z,20.85
2019-03-30T13:17:14.596Z,20.55
2019-03-30T13:19:43.793Z,22.46
2019-03-30T13:22:12.986Z,22.10
2019-03-30T13:24:42.464Z,22.78
2019-03-30T13:27:13.138Z,22.76
2019-03-30T13:29:42.369Z,23.07
2019-03-30T13:32:11.571Z,22.32
2019-03-30T13:34:40.749Z,22.40
2019-03-30T13:37:18.239Z,22.72
2019-03-30T13:39:47.444Z,22.99
2019-03-30T13:42:16.615Z,22.44
2019-03-30T13:44:46.063Z,23.42
2019-03-30T13:47:16.297Z,24.57
2019-03-30T13:49:45.780Z,24.76
2019-03-30T13:52:14.969Z,23.98
2019-03-30T13:54:44.161Z,23.55
2019-03-30T13:57:13.348Z,22.64
2019-03-30T13:59:42.616Z,24.51
2019-03-30T14:02:11.789Z,24.69
2019-03-30T14:04:41.194Z,24.36
2019-03-30T14:07:10.402Z,23.61
2019-03-30T14:09:39.581Z,24.16
2019-03-30T14:12:08.857Z,24.94
2019-03-30T14:14:38.055Z,25.08
2019-03-30T14:17:07.412Z,24.51
2019-03-30T14:19:36.615Z,24.51
2019-03-30T14:22:05.784Z,25.12
2019-03-30T14:24:35.300Z,25.06
2019-03-30T14:27:04.863Z,24.92
2019-03-30T14:29:35.033Z,25.11
2019-03-30T14:32:04.285Z,26.30
2019-03-30T14:34:33.522Z,26.44
2019-03-30T14:37:02.763Z,24.78
2019-03-30T14:39:32.000Z,25.22
2019-03-30T14:42:01.445Z,25.13
2019-03-30T14:44:30.626Z,24.46
2019-03-30T14:47:00.350Z,24.34
2019-03-30T14:49:29.520Z,23.56
2019-03-30T14:51:58.765Z,23.86
2019-03-30T14:54:28.207Z,25.86
2019-03-30T14:56:57.472Z,24.51
2019-03-30T14:59:26.652Z,24.73
2019-03-30T15:01:56.075Z,25.33
2019-03-30T15:04:25.370Z,23.86
2019-03-30T15:06:54.614Z,24.23
2019-03-30T15:09:23.816Z,24.55
2019-03-30T15:11:53.956Z,24.58
2019-03-30T15:14:23.412Z,26.17
2019-03-30T15:16:52.709Z,24.98
2019-03-30T15:19:21.907Z,23.71
2019-03-30T15:21:51.097Z,24.06
2019-03-30T15:24:20.292Z,24.79
2019-03-30T15:26:59.964Z,24.78
2019-03-30T15:29:20.379Z,25.25
2019-03-30T15:31:49.602Z,25.73
2019-03-30T15:34:18.787Z,24.60
2019-03-30T15:36:48.317Z,25.04
2019-03-30T15:39:17.501Z,25.48
2019-03-30T15:41:46.646Z,24.06
2019-03-30T15:44:15.932Z,24.13
2019-03-30T15:46:45.107Z,24.49
2019-03-30T15:49:14.288Z,23.88
2019-03-30T15:51:43.515Z,24.24
2019-03-30T15:54:12.771Z,25.67
2019-03-30T15:56:41.999Z,24.51
2019-03-30T15:59:11.286Z,24.04
2019-03-30T16:01:40.573Z,24.84
2019-03-30T16:04:10.039Z,23.52
2019-03-30T16:06:39.786Z,24.50
2019-03-30T16:09:09.183Z,24.77
2019-03-30T16:11:38.382Z,24.25
2019-03-30T16:14:07.593Z,25.32
2019-03-30T16:16:36.783Z,24.90
2019-03-30T16:19:06.267Z,25.00
2019-03-30T16:21:35.493Z,23.76
2019-03-30T16:24:05.067Z,25.35
2019-03-30T16:26:41.800Z,24.70
2019-03-30T16:29:06.269Z,24.65
2019-03-30T16:31:36.015Z,24.70
2019-03-30T16:34:05.315Z,25.34
2019-03-30T16:36:34.497Z,25.76
2019-03-30T16:39:05.248Z,25.14
2019-03-30T16:41:34.767Z,24.49
2019-03-30T16:44:04.657Z,24.70
2019-03-30T16:46:33.851Z,24.87
2019-03-30T16:49:03.283Z,24.54
2019-03-30T16:51:32.788Z,24.48
2019-03-30T16:54:02.021Z,24.65
2019-03-30T16:56:31.433Z,24.87
2019-03-30T16:59:00.623Z,25.95
2019-03-30T17:01:30.790Z,24.55
2019-03-30T17:04:01.304Z,23.98
2019-03-30T17:06:30.725Z,24.99
2019-03-30T17:08:59.926Z,25.85
2019-03-30T17:11:29.096Z,25.77
2019-03-30T17:13:58.995Z,25.47
2019-03-30T17:16:28.209Z,25.82
2019-03-30T17:18:57.545Z,25.69
2019-03-30T17:21:27.000Z,25.93
2019-03-30T17:23:56.193Z,25.90
2019-03-30T17:26:25.386Z,26.35
2019-03-30T17:28:54.664Z,26.18
2019-03-30T17:31:23.918Z,26.91
2019-03-30T17:33:53.182Z,27.49
2019-03-30T17:36:22.401Z,26.42
2019-03-30T17:38:51.848Z,26.62
2019-03-30T17:41:21.049Z,26.95
2019-03-30T17:43:50.485Z,27.25
2019-03-30T17:46:19.738Z,27.54
2019-03-30T17:48:49.138Z,27.42
2019-03-30T17:51:18.955Z,28.75
2019-03-30T17:53:49.186Z,28.54
2019-03-30T17:56:18.516Z,29.62
2019-03-30T17:58:47.685Z,31.07
2019-03-30T18:01:16.885Z,30.88
2019-03-30T18:03:46.105Z,31.59
2019-03-30T18:06:15.271Z,31.90
2019-03-30T18:08:44.456Z,31.86
2019-03-30T18:11:13.632Z,31.90
2019-03-30T18:13:42.825Z,32.40
2019-03-30T18:16:11.995Z,32.46
2019-03-30T18:18:41.173Z,32.56
2019-03-30T18:21:11.051Z,32.86
2019-03-30T18:23:40.266Z,33.85
2019-03-30T18:26:10.378Z,33.38
2019-03-30T18:28:39.835Z,33.90
2019-03-30T18:31:09.138Z,34.40
2019-03-30T18:33:38.780Z,34.81
2019-03-30T18:36:07.977Z,35.13
2019-03-30T18:38:37.945Z,35.43
2019-03-30T18:41:07.445Z,35.66
2019-03-30T18:43:36.606Z,36.37
2019-03-30T18:46:06.511Z,36.68
2019-03-30T18:48:35.799Z,36.99
2019-03-30T18:51:05.087Z,36.53
2019-03-30T18:53:34.629Z,36.94
2019-03-30T18:56:06.737Z,36.27
2019-03-30T18:58:41.888Z,36.12
2019-03-30T19:01:07.841Z,36.84
2019-03-30T19:03:37.321Z,36.21
2019-03-30T19:06:06.579Z,37.13
2019-03-30T19:08:35.982Z,36.69
2019-03-30T19:11:05.633Z,37.28
2019-03-30T19:13:35.124Z,37.42
2019-03-30T19:16:04.585Z,37.65
2019-03-30T19:18:34.741Z,37.63
2019-03-30T19:21:03.996Z,36.71
2019-03-30T19:23:33.201Z,37.79
2019-03-30T19:26:02.362Z,38.13
2019-03-30T19:28:31.591Z,37.81
2019-03-30T19:31:01.142Z,37.66
2019-03-30T19:33:30.370Z,37.44
2019-03-30T19:35:59.556Z,38.49
2019-03-30T19:38:29.050Z,38.15
2019-03-30T19:40:58.214Z,37.93
2019-03-30T19:43:37.434Z,38.89
2019-03-30T19:46:06.657Z,38.78
2019-03-30T19:48:37.118Z,38.33
2019-03-30T19:51:06.357Z,38.30
2019-03-30T19:53:35.579Z,38.45
2019-03-30T19:56:05.435Z,39.02
2019-03-30T19:58:34.913Z,39.02
2019-03-30T20:01:04.906Z,38.67
2019-03-30T20:03:34.069Z,39.39
2019-03-30T20:06:03.272Z,39.39
2019-03-30T20:08:32.485Z,38.44
2019-03-30T20:11:02.198Z,38.31
2019-03-30T20:13:31.388Z,38.35
2019-03-30T20:16:00.593Z,39.56
2019-03-30T20:18:29.763Z,39.56
2019-03-30T20:20:58.971Z,39.51
2019-03-30T20:23:28.247Z,39.43
2019-03-30T20:25:57.501Z,39.83
2019-03-30T20:28:26.702Z,39.89
2019-03-30T20:30:57.169Z,40.52
2019-03-30T20:33:26.368Z,40.52
2019-03-30T20:35:55.813Z,40.52
2019-03-30T20:38:25.041Z,40.44
2019-03-30T20:40:54.253Z,40.30
2019-03-30T20:43:23.712Z,40.88
2019-03-30T20:45:52.910Z,39.40
2019-03-30T20:48:22.071Z,40.15
2019-03-30T20:50:51.626Z,39.98
2019-03-30T20:53:20.877Z,40.41
2019-03-30T20:55:50.330Z,41.67
2019-03-30T20:58:19.559Z,39.98
2019-03-30T21:00:48.733Z,40.85
2019-03-30T21:03:18.290Z,40.26
2019-03-30T21:05:47.508Z,41.05
2019-03-30T21:08:17.186Z,40.90
2019-03-30T21:10:46.333Z,41.26
2019-03-30T21:13:15.538Z,41.00
2019-03-30T21:15:45.231Z,41.28
2019-03-30T21:18:14.698Z,42.04
2019-03-30T21:20:43.884Z,41.28
2019-03-30T21:23:13.341Z,41.32
2019-03-30T21:25:42.905Z,42.38
2019-03-30T21:28:12.136Z,41.14
2019-03-30T21:30:41.301Z,41.24
2019-03-30T21:33:10.519Z,41.41
2019-03-30T21:35:39.766Z,41.40
2019-03-30T21:38:09.198Z,42.88
2019-03-30T21:40:38.621Z,43.06
2019-03-30T21:43:07.810Z,42.24
2019-03-30T21:45:37.201Z,42.64
2019-03-30T21:48:06.754Z,41.86
2019-03-30T21:50:35.932Z,42.98
2019-03-30T21:53:05.152Z,41.25
2019-03-30T21:55:35.307Z,41.71
2019-03-30T21:58:04.486Z,41.98
2019-03-30T22:00:37.989Z,42.56
2019-03-30T22:03:07.301Z,42.28
2019-03-30T22:05:36.547Z,41.42
2019-03-30T22:08:06.232Z,42.49
2019-03-30T22:10:36.152Z,42.23
2019-03-30T22:13:05.789Z,41.90
2019-03-30T22:15:34.988Z,42.49
2019-03-30T22:18:04.251Z,42.76
2019-03-30T22:20:33.740Z,43.04
2019-03-30T22:23:03.880Z,42.66
2019-03-30T22:25:33.346Z,42.06
2019-03-30T22:28:02.792Z,42.68
2019-03-30T22:30:32.489Z,41.67
2019-03-30T22:33:01.677Z,43.09
2019-03-30T22:35:30.936Z,43.06
2019-03-30T22:38:00.360Z,42.45
2019-03-30T22:40:29.793Z,43.56
2019-03-30T22:42:59.282Z,42.91
2019-03-30T22:45:28.552Z,43.75
2019-03-30T22:47:57.996Z,43.45
2019-03-30T22:50:27.909Z,42.96
2019-03-30T22:52:57.081Z,41.86
2019-03-30T22:55:26.263Z,42.43
2019-03-30T22:57:55.750Z,42.49
2019-03-30T23:00:42.594Z,42.92
2019-03-30T23:03:12.755Z,42.90
2019-03-30T23:05:41.937Z,42.42
2019-03-30T23:08:11.112Z,42.67
2019-03-30T23:10:40.702Z,43.10
2019-03-30T23:13:09.934Z,42.41
2019-03-30T23:15:39.398Z,43.24
2019-03-30T23:18:08.899Z,42.76
2019-03-30T23:20:38.300Z,44.18
2019-03-30T23:23:07.539Z,44.17
2019-03-30T23:25:37.440Z,42.89
2019-03-30T23:28:06.641Z,42.56
2019-03-30T23:30:36.102Z,42.99
2019-03-30T23:33:05.524Z,42.81
2019-03-30T23:35:34.740Z,42.92
2019-03-30T23:38:03.936Z,43.44
2019-03-30T23:40:33.353Z,42.94
2019-03-30T23:43:02.609Z,43.66
2019-03-30T23:45:32.028Z,43.08
2019-03-30T23:48:01.655Z,43.34
2019-03-30T23:50:31.132Z,43.23
2019-03-30T23:53:00.807Z,43.52
2019-03-30T23:55:30.275Z,43.24
2019-03-30T23:57:59.729Z,43.55
